• Join FlightAware (Why Join?)
  • Login
  • US Flag 
03:49AM EDT


 

Airport Tracker/Info


-or-


 

Live Flight TrackerFlight Track Log ✈ VRT51 ✈ 11-Jun-2014 ✈ KCHA - KBNA

Flight Track Log - Related Links

Times and Time Zones

All times are in EDT time to prevent confusion due to time zone crossing. See the VRT51 flight status page for this flight to view local times or setup timezone preferences in your user account.

Time Position Orientation Groundspeed Altitude Reporting Facility
EDT Latitude Longitude Course Direction KTS MPH feet Rate Location/Type
08:01PM 35.2333 -85.4992 313° West 334 384 15,500  Level Memphis Center
08:02PM 35.1958 -85.4540 314° West  Level FlightAware Approximate
08:02PM 35.3200 -85.6106 314° West 371 427 16,000  Level Memphis Center
08:03PM 35.2472 -85.5202 314° West  Level FlightAware Approximate
08:03PM 35.3983 -85.7094 314° West 397 457 16,000  Level Memphis Center
08:04PM 35.2980 -85.5871 311° West  Level FlightAware Approximate
08:04PM 35.4739 -85.8075 313° West 397 457 16,000  Level Memphis Center
08:05PM 35.3471 -85.6559 311° West  Level FlightAware Approximate
08:05PM 35.5525 -85.9078 314° West 399 459 16,000  Level Memphis Center
08:06PM 35.6269 -86.0078 313° West 409 471 15,200 -1,500 Descending Memphis Center
08:07PM 35.7122 -86.1217 313° West 390 449 13,000 -1,980 Descending Memphis Center
08:08PM 35.7819 -86.2142 313° West 373 429 11,200 -1,500 Descending Memphis Center
08:09PM 35.8433 -86.2967 313° West 335 386 9,900 -1,320 Descending Memphis Center
08:10PM 35.8969 -86.3672 313° West 292 336 8,500 -1,680 Descending Memphis Center
08:12PM 35.9461 -86.4319 313° West 266 306 6,400 -1,200 Descending Memphis Center
08:13PM 35.9953 -86.4947 314° West 255 293 6,000 -240 Descending Memphis Center
08:14PM 36.0439 -86.5611 312° West 257 296 6,000 -540 Level Memphis Center
08:15PM 36.1161 -86.5611 360° North 241 277 5,000 -1,020 Descending Memphis Center
08:16PM 36.1711 -86.5375 19° North 218 251 4,000 -1,080 Descending Memphis Center
08:17PM 36.2219 -86.5367 North 211 243 2,800 -1,020 Descending Memphis Center
08:18PM 36.2297 -86.5972 279° West 192 221 2,000 -420 Descending Memphis Center
08:19PM 36.2011 -86.6308 223° Southwest 153 176 2,000 -360 Level Memphis Center
08:20PM 36.1672 -86.6447 198° South 132 152 1,300 -660 Descending Memphis Center
08:21PM 36.1350 -86.6586 199° South 126 145 700 -600 Descending Memphis Center